sensor_id;sensor_type;location;lat;lon;timestamp;pressure;altitude;pressure_sealevel;temperature;humidity
54465;BME280;40374;49.480;20.016;2023-01-27T00:01:03;94859.84;;;-2.54;100.00
54465;BME280;40374;49.480;20.016;2023-01-27T00:03:31;94874.66;;;-2.47;100.00
54465;BME280;40374;49.480;20.016;2023-01-27T00:05:58;94878.50;;;-2.42;100.00
54465;BME280;40374;49.480;20.016;2023-01-27T00:08:27;94891.25;;;-2.39;100.00
54465;BME280;40374;49.480;20.016;2023-01-27T00:10:59;94884.56;;;-2.35;100.00
54465;BME280;40374;49.480;20.016;2023-01-27T00:13:45;94881.13;;;-2.42;100.00
54465;BME280;40374;49.480;20.016;2023-01-27T00:16:12;94879.09;;;-2.40;100.00
54465;BME280;40374;49.480;20.016;2023-01-27T00:18:40;94880.34;;;-2.43;100.00
54465;BME280;40374;49.480;20.016;2023-01-27T00:21:07;94877.09;;;-2.45;100.00
54465;BME280;40374;49.480;20.016;2023-01-27T00:23:53;94879.31;;;-2.49;100.00
54465;BME280;40374;49.480;20.016;2023-01-27T00:26:39;94887.38;;;-2.50;100.00
54465;BME280;40374;49.480;20.016;2023-01-27T00:29:07;94881.72;;;-2.54;100.00
54465;BME280;40374;49.480;20.016;2023-01-27T00:31:34;94878.50;;;-2.56;100.00
54465;BME280;40374;49.480;20.016;2023-01-27T00:34:21;94885.16;;;-2.60;100.00
54465;BME280;40374;49.480;20.016;2023-01-27T00:36:48;94877.25;;;-2.67;100.00
54465;BME280;40374;49.480;20.016;2023-01-27T00:39:15;94885.97;;;-2.66;100.00
54465;BME280;40374;49.480;20.016;2023-01-27T00:41:43;94887.38;;;-2.70;100.00
54465;BME280;40374;49.480;20.016;2023-01-27T00:44:11;94887.75;;;-2.73;100.00
54465;BME280;40374;49.480;20.016;2023-01-27T00:46:41;94888.59;;;-2.73;100.00
54465;BME280;40374;49.480;20.016;2023-01-27T00:49:09;94894.84;;;-2.74;100.00
54465;BME280;40374;49.480;20.016;2023-01-27T00:51:39;94890.97;;;-2.78;100.00
54465;BME280;40374;49.480;20.016;2023-01-27T00:54:07;94891.16;;;-2.79;100.00
54465;BME280;40374;49.480;20.016;2023-01-27T00:56:35;94884.72;;;-2.77;100.00
54465;BME280;40374;49.480;20.016;2023-01-27T00:59:03;94893.63;;;-2.71;100.00
54465;BME280;40374;49.480;20.016;2023-01-27T01:01:31;94879.25;;;-2.75;100.00
54465;BME280;40374;49.480;20.016;2023-01-27T01:04:00;94883.53;;;-2.68;100.00
54465;BME280;40374;49.480;20.016;2023-01-27T01:06:28;94878.66;;;-2.71;100.00
54465;BME280;40374;49.480;20.016;2023-01-27T01:08:56;94884.75;;;-2.63;100.00
54465;BME280;40374;49.480;20.016;2023-01-27T01:11:24;94879.47;;;-2.70;100.00
54465;BME280;40374;49.480;20.016;2023-01-27T01:13:52;94871.16;;;-2.80;100.00
54465;BME280;40374;49.480;20.016;2023-01-27T01:16:22;94864.66;;;-2.84;100.00
54465;BME280;40374;49.480;20.016;2023-01-27T01:18:51;94864.03;;;-2.87;100.00
54465;BME280;40374;49.480;20.016;2023-01-27T01:21:19;94872.13;;;-2.81;100.00
54465;BME280;40374;49.480;20.016;2023-01-27T01:23:47;94872.34;;;-2.83;100.00
54465;BME280;40374;49.480;20.016;2023-01-27T01:26:15;94869.72;;;-2.76;100.00
54465;BME280;40374;49.480;20.016;2023-01-27T01:28:44;94869.31;;;-2.73;100.00
54465;BME280;40374;49.480;20.016;2023-01-27T01:31:14;94861.44;;;-2.73;100.00
54465;BME280;40374;49.480;20.016;2023-01-27T01:33:42;94861.03;;;-2.77;100.00
54465;BME280;40374;49.480;20.016;2023-01-27T01:36:12;94861.66;;;-2.68;100.00
54465;BME280;40374;49.480;20.016;2023-01-27T01:38:41;94861.25;;;-2.72;100.00
54465;BME280;40374;49.480;20.016;2023-01-27T01:41:14;94857.81;;;-2.66;100.00
54465;BME280;40374;49.480;20.016;2023-01-27T01:43:42;94857.19;;;-2.74;100.00
54465;BME280;40374;49.480;20.016;2023-01-27T01:46:11;94855.97;;;-2.72;100.00
54465;BME280;40374;49.480;20.016;2023-01-27T01:48:55;94859.03;;;-2.68;100.00
54465;BME280;40374;49.480;20.016;2023-01-27T01:54:02;94850.31;;;-2.69;100.00
54465;BME280;40374;49.480;20.016;2023-01-27T01:56:38;94832.88;;;-2.76;100.00
54465;BME280;40374;49.480;20.016;2023-01-27T01:59:14;94848.69;;;-2.70;100.00
54465;BME280;40374;49.480;20.016;2023-01-27T02:01:43;94846.25;;;-2.78;100.00
54465;BME280;40374;49.480;20.016;2023-01-27T02:04:16;94850.72;;;-2.72;100.00
54465;BME280;40374;49.480;20.016;2023-01-27T02:07:04;94853.16;;;-2.70;100.00
54465;BME280;40374;49.480;20.016;2023-01-27T02:09:33;94849.69;;;-2.77;100.00
54465;BME280;40374;49.480;20.016;2023-01-27T02:12:01;94842.19;;;-2.80;100.00
54465;BME280;40374;49.480;20.016;2023-01-27T02:14:29;94850.06;;;-2.87;100.00
54465;BME280;40374;49.480;20.016;2023-01-27T02:16:56;94849.06;;;-2.86;100.00
54465;BME280;40374;49.480;20.016;2023-01-27T02:28:20;94851.50;;;-2.84;100.00
54465;BME280;40374;49.480;20.016;2023-01-27T02:30:47;94844.41;;;-2.84;100.00
54465;BME280;40374;49.480;20.016;2023-01-27T02:33:15;94852.72;;;-2.80;100.00
54465;BME280;40374;49.480;20.016;2023-01-27T02:38:39;94856.97;;;-2.79;100.00
54465;BME280;40374;49.480;20.016;2023-01-27T02:41:15;94853.72;;;-2.81;100.00
54465;BME280;40374;49.480;20.016;2023-01-27T02:43:46;94852.28;;;-2.84;100.00
54465;BME280;40374;49.480;20.016;2023-01-27T02:46:15;94846.63;;;-2.88;100.00
54465;BME280;40374;49.480;20.016;2023-01-27T02:48:42;94851.28;;;-2.90;100.00
54465;BME280;40374;49.480;20.016;2023-01-27T02:51:10;94852.47;;;-2.92;100.00
54465;BME280;40374;49.480;20.016;2023-01-27T02:53:41;94853.31;;;-2.92;100.00
54465;BME280;40374;49.480;20.016;2023-01-27T02:56:09;94845.59;;;-2.93;100.00
54465;BME280;40374;49.480;20.016;2023-01-27T02:58:36;94855.97;;;-2.85;100.00
54465;BME280;40374;49.480;20.016;2023-01-27T03:01:11;94856.31;;;-2.95;100.00
54465;BME280;40374;49.480;20.016;2023-01-27T03:03:38;94851.06;;;-2.95;100.00
54465;BME280;40374;49.480;20.016;2023-01-27T03:06:10;94852.69;;;-2.94;100.00
54465;BME280;40374;49.480;20.016;2023-01-27T03:08:38;94844.19;;;-2.96;100.00
54465;BME280;40374;49.480;20.016;2023-01-27T03:11:05;94852.69;;;-2.94;100.00
54465;BME280;40374;49.480;20.016;2023-01-27T03:13:33;94850.69;;;-2.92;100.00
54465;BME280;40374;49.480;20.016;2023-01-27T03:16:04;94839.75;;;-2.82;100.00
54465;BME280;40374;49.480;20.016;2023-01-27T03:18:50;94844.81;;;-2.80;100.00
54465;BME280;40374;49.480;20.016;2023-01-27T03:21:20;94838.09;;;-2.96;100.00
54465;BME280;40374;49.480;20.016;2023-01-27T03:23:47;94848.66;;;-2.90;100.00
54465;BME280;40374;49.480;20.016;2023-01-27T03:26:20;94842.38;;;-2.95;100.00
54465;BME280;40374;49.480;20.016;2023-01-27T03:28:52;94849.66;;;-2.91;100.00
54465;BME280;40374;49.480;20.016;2023-01-27T03:31:42;94856.31;;;-2.95;100.00
54465;BME280;40374;49.480;20.016;2023-01-27T03:34:10;94860.78;;;-2.95;100.00
54465;BME280;40374;49.480;20.016;2023-01-27T03:36:44;94864.81;;;-2.93;100.00
54465;BME280;40374;49.480;20.016;2023-01-27T03:39:30;94858.31;;;-3.03;100.00
54465;BME280;40374;49.480;20.016;2023-01-27T03:42:17;94867.63;;;-3.01;100.00
54465;BME280;40374;49.480;20.016;2023-01-27T03:45:03;94846.97;;;-3.11;100.00
54465;BME280;40374;49.480;20.016;2023-01-27T03:47:50;94855.88;;;-3.05;100.00
54465;BME280;40374;49.480;20.016;2023-01-27T03:50:18;94838.06;;;-3.16;100.00
54465;BME280;40374;49.480;20.016;2023-01-27T04:01:38;94838.50;;;-2.99;100.00
54465;BME280;40374;49.480;20.016;2023-01-27T04:12:40;94824.66;;;-3.21;100.00
54465;BME280;40374;49.480;20.016;2023-01-27T04:15:07;94844.75;;;-3.07;100.00
54465;BME280;40374;49.480;20.016;2023-01-27T04:17:35;94846.38;;;-3.13;100.00
54465;BME280;40374;49.480;20.016;2023-01-27T04:20:05;94840.72;;;-3.03;100.00
54465;BME280;40374;49.480;20.016;2023-01-27T04:22:32;94823.09;;;-3.09;100.00
54465;BME280;40374;49.480;20.016;2023-01-27T04:25:00;94834.84;;;-3.05;100.00
54465;BME280;40374;49.480;20.016;2023-01-27T04:27:27;94813.53;;;-3.23;100.00
54465;BME280;40374;49.480;20.016;2023-01-27T04:29:55;94828.16;;;-3.08;100.00
54465;BME280;40374;49.480;20.016;2023-01-27T04:32:22;94832.63;;;-3.08;100.00
54465;BME280;40374;49.480;20.016;2023-01-27T04:34:49;94819.84;;;-3.11;100.00
54465;BME280;40374;49.480;20.016;2023-01-27T04:37:17;94821.88;;;-3.13;100.00
54465;BME280;40374;49.480;20.016;2023-01-27T04:39:44;94839.03;;;-3.17;100.00
54465;BME280;40374;49.480;20.016;2023-01-27T04:42:12;94829.53;;;-3.25;100.00
54465;BME280;40374;49.480;20.016;2023-01-27T04:44:40;94833.16;;;-3.19;100.00
54465;BME280;40374;49.480;20.016;2023-01-27T04:47:07;94841.69;;;-3.17;100.00
54465;BME280;40374;49.480;20.016;2023-01-27T04:49:34;94833.38;;;-3.21;100.00
54465;BME280;40374;49.480;20.016;2023-01-27T04:52:02;94838.03;;;-3.23;100.00
54465;BME280;40374;49.480;20.016;2023-01-27T04:54:30;94837.63;;;-3.20;100.00
54465;BME280;40374;49.480;20.016;2023-01-27T04:57:00;94831.78;;;-3.15;100.00
54465;BME280;40374;49.480;20.016;2023-01-27T04:59:31;94835.63;;;-3.11;100.00
54465;BME280;40374;49.480;20.016;2023-01-27T05:01:59;94841.72;;;-3.11;100.00
54465;BME280;40374;49.480;20.016;2023-01-27T05:04:26;94828.53;;;-3.17;100.00
54465;BME280;40374;49.480;20.016;2023-01-27T05:06:54;94836.06;;;-3.08;100.00
54465;BME280;40374;49.480;20.016;2023-01-27T05:09:21;94830.78;;;-3.14;100.00
54465;BME280;40374;49.480;20.016;2023-01-27T05:11:49;94840.88;;;-3.18;100.00
54465;BME280;40374;49.480;20.016;2023-01-27T05:14:17;94838.44;;;-3.19;100.00
54465;BME280;40374;49.480;20.016;2023-01-27T05:16:44;94829.53;;;-3.18;100.00
54465;BME280;40374;49.480;20.016;2023-01-27T05:19:11;94835.41;;;-3.23;100.00
54465;BME280;40374;49.480;20.016;2023-01-27T05:21:39;94847.78;;;-3.17;100.00
54465;BME280;40374;49.480;20.016;2023-01-27T05:24:06;94854.25;;;-3.13;100.00
54465;BME280;40374;49.480;20.016;2023-01-27T05:26:34;94850.78;;;-3.20;100.00
54465;BME280;40374;49.480;20.016;2023-01-27T05:29:01;94851.00;;;-3.15;100.00
54465;BME280;40374;49.480;20.016;2023-01-27T05:31:30;94849.81;;;-3.12;100.00
54465;BME280;40374;49.480;20.016;2023-01-27T05:33:59;94850.78;;;-3.13;100.00
54465;BME280;40374;49.480;20.016;2023-01-27T05:36:28;94849.78;;;-3.19;100.00
54465;BME280;40374;49.480;20.016;2023-01-27T05:38:58;94849.97;;;-3.20;100.00
54465;BME280;40374;49.480;20.016;2023-01-27T05:41:28;94831.91;;;-3.30;100.00
54465;BME280;40374;49.480;20.016;2023-01-27T05:43:57;94847.72;;;-3.23;100.00
54465;BME280;40374;49.480;20.016;2023-01-27T05:46:26;94848.56;;;-3.16;100.00
54465;BME280;40374;49.480;20.016;2023-01-27T05:49:01;94856.28;;;-3.08;100.00
54465;BME280;40374;49.480;20.016;2023-01-27T05:51:32;94851.00;;;-3.15;100.00
54465;BME280;40374;49.480;20.016;2023-01-27T05:54:00;94850.97;;;-3.21;100.00
54465;BME280;40374;49.480;20.016;2023-01-27T05:56:28;94846.94;;;-3.17;100.00
54465;BME280;40374;49.480;20.016;2023-01-27T05:58:56;94843.31;;;-3.16;100.00
54465;BME280;40374;49.480;20.016;2023-01-27T06:01:26;94842.50;;;-3.17;100.00
54465;BME280;40374;49.480;20.016;2023-01-27T06:03:54;94851.22;;;-3.16;100.00
54465;BME280;40374;49.480;20.016;2023-01-27T06:06:24;94855.66;;;-3.17;100.00
54465;BME280;40374;49.480;20.016;2023-01-27T06:08:52;94847.34;;;-3.20;100.00
54465;BME280;40374;49.480;20.016;2023-01-27T06:11:20;94850.97;;;-3.21;100.00
54465;BME280;40374;49.480;20.016;2023-01-27T06:13:48;94831.91;;;-3.30;100.00
54465;BME280;40374;49.480;20.016;2023-01-27T06:16:17;94850.19;;;-3.15;100.00
54465;BME280;40374;49.480;20.016;2023-01-27T06:18:47;94846.13;;;-3.18;100.00
54465;BME280;40374;49.480;20.016;2023-01-27T06:21:15;94850.19;;;-3.15;100.00
54465;BME280;40374;49.480;20.016;2023-01-27T06:23:43;94853.22;;;-3.18;100.00
54465;BME280;40374;49.480;20.016;2023-01-27T06:26:18;94851.63;;;-3.13;100.00
54465;BME280;40374;49.480;20.016;2023-01-27T06:28:46;94854.22;;;-3.19;100.00
54465;BME280;40374;49.480;20.016;2023-01-27T06:31:18;94846.50;;;-3.28;100.00
54465;BME280;40374;49.480;20.016;2023-01-27T06:33:47;94852.97;;;-3.30;100.00
54465;BME280;40374;49.480;20.016;2023-01-27T06:36:17;94837.16;;;-3.37;100.00
54465;BME280;40374;49.480;20.016;2023-01-27T06:38:45;94851.75;;;-3.28;100.00
54465;BME280;40374;49.480;20.016;2023-01-27T06:41:12;94861.69;;;-3.30;100.00
54465;BME280;40374;49.480;20.016;2023-01-27T06:43:40;94857.84;;;-3.27;100.00
54465;BME280;40374;49.480;20.016;2023-01-27T06:46:08;94861.13;;;-3.18;100.00
54465;BME280;40374;49.480;20.016;2023-01-27T06:48:35;94845.94;;;-3.23;100.00
54465;BME280;40374;49.480;20.016;2023-01-27T06:51:04;94858.94;;;-3.08;100.00
54465;BME280;40374;49.480;20.016;2023-01-27T06:53:31;94856.28;;;-3.08;100.00
54465;BME280;40374;49.480;20.016;2023-01-27T06:56:00;94857.13;;;-2.94;100.00
54465;BME280;40374;49.480;20.016;2023-01-27T06:58:28;94853.06;;;-2.97;100.00
54465;BME280;40374;49.480;20.016;2023-01-27T07:00:56;94856.31;;;-2.95;100.00
54465;BME280;40374;49.480;20.016;2023-01-27T07:03:24;94873.16;;;-2.82;100.00
54465;BME280;40374;49.480;20.016;2023-01-27T07:05:52;94870.13;;;-2.79;100.00
54465;BME280;40374;49.480;20.016;2023-01-27T07:08:19;94868.72;;;-2.75;100.00
54465;BME280;40374;49.480;20.016;2023-01-27T07:10:47;94869.13;;;-2.72;100.00
54465;BME280;40374;49.480;20.016;2023-01-27T07:13:14;94870.97;;;-2.66;100.00
54465;BME280;40374;49.480;20.016;2023-01-27T07:15:42;94862.03;;;-2.71;100.00
54465;BME280;40374;49.480;20.016;2023-01-27T07:18:10;94867.34;;;-2.58;100.00
54465;BME280;40374;49.480;20.016;2023-01-27T07:20:40;94871.41;;;-2.55;100.00
54465;BME280;40374;49.480;20.016;2023-01-27T07:23:08;94873.41;;;-2.51;100.00
54465;BME280;40374;49.480;20.016;2023-01-27T07:25:36;94875.84;;;-2.56;100.00
54465;BME280;40374;49.480;20.016;2023-01-27T07:28:04;94891.25;;;-2.46;100.00
54465;BME280;40374;49.480;20.016;2023-01-27T07:30:32;94880.72;;;-2.53;100.00
54465;BME280;40374;49.480;20.016;2023-01-27T07:33:11;94886.59;;;-2.51;100.00
54465;BME280;40374;49.480;20.016;2023-01-27T07:35:39;94890.44;;;-2.53;100.00
54465;BME280;40374;49.480;20.016;2023-01-27T07:38:08;94890.03;;;-2.57;100.00
54465;BME280;40374;49.480;20.016;2023-01-27T07:40:35;94898.94;;;-2.58;100.00
54465;BME280;40374;49.480;20.016;2023-01-27T07:43:03;94900.34;;;-2.55;100.00
54465;BME280;40374;49.480;20.016;2023-01-27T07:45:33;94899.34;;;-2.54;100.00
54465;BME280;40374;49.480;20.016;2023-01-27T07:48:05;94888.41;;;-2.51;100.00
54465;BME280;40374;49.480;20.016;2023-01-27T07:50:35;94905.03;;;-2.44;100.00
54465;BME280;40374;49.480;20.016;2023-01-27T07:53:03;94893.31;;;-2.35;100.00
54465;BME280;40374;49.480;20.016;2023-01-27T07:55:32;94898.34;;;-2.33;100.00
54465;BME280;40374;49.480;20.016;2023-01-27T07:58:00;94904.22;;;-2.31;100.00
54465;BME280;40374;49.480;20.016;2023-01-27T08:00:27;94907.28;;;-2.28;100.00
54465;BME280;40374;49.480;20.016;2023-01-27T08:02:56;94907.88;;;-2.26;100.00
54465;BME280;40374;49.480;20.016;2023-01-27T08:05:25;94919.03;;;-2.30;100.00
54465;BME280;40374;49.480;20.016;2023-01-27T08:07:54;94917.63;;;-2.26;100.00
54465;BME280;40374;49.480;20.016;2023-01-27T08:10:25;94914.75;;;-2.31;100.00
54465;BME280;40374;49.480;20.016;2023-01-27T08:12:52;94918.00;;;-2.29;100.00
54465;BME280;40374;49.480;20.016;2023-01-27T08:15:20;94919.03;;;-2.23;100.00
54465;BME280;40374;49.480;20.016;2023-01-27T08:17:58;94919.47;;;-2.20;100.00
54465;BME280;40374;49.480;20.016;2023-01-27T08:20:26;94920.88;;;-2.31;100.00
54465;BME280;40374;49.480;20.016;2023-01-27T08:22:54;94929.97;;;-2.33;100.00
54465;BME280;40374;49.480;20.016;2023-01-27T08:25:22;94929.97;;;-2.33;100.00
54465;BME280;40374;49.480;20.016;2023-01-27T08:27:51;94929.97;;;-2.33;100.00
54465;BME280;40374;49.480;20.016;2023-01-27T08:30:20;94924.91;;;-2.35;100.00
54465;BME280;40374;49.480;20.016;2023-01-27T08:32:47;94913.16;;;-2.39;100.00
54465;BME280;40374;49.480;20.016;2023-01-27T08:35:15;94924.91;;;-2.35;100.00
54465;BME280;40374;49.480;20.016;2023-01-27T08:37:45;94925.72;;;-2.34;100.00
54465;BME280;40374;49.480;20.016;2023-01-27T08:40:15;94920.84;;;-2.37;100.00
54465;BME280;40374;49.480;20.016;2023-01-27T08:42:42;94922.84;;;-2.39;100.00
54465;BME280;40374;49.480;20.016;2023-01-27T08:45:10;94909.91;;;-2.48;100.00
54465;BME280;40374;49.480;20.016;2023-01-27T08:47:38;94921.25;;;-2.47;100.00
54465;BME280;40374;49.480;20.016;2023-01-27T08:50:06;94927.31;;;-2.47;100.00
54465;BME280;40374;49.480;20.016;2023-01-27T08:52:34;94916.16;;;-2.55;100.00
54465;BME280;40374;49.480;20.016;2023-01-27T08:55:01;94924.88;;;-2.48;100.00
54465;BME280;40374;49.480;20.016;2023-01-27T08:57:29;94931.16;;;-2.42;100.00
54465;BME280;40374;49.480;20.016;2023-01-27T08:59:59;94932.59;;;-2.33;100.00
54465;BME280;40374;49.480;20.016;2023-01-27T09:02:27;94932.63;;;-2.27;100.00
54465;BME280;40374;49.480;20.016;2023-01-27T09:04:55;94926.34;;;-2.19;100.00
54465;BME280;40374;49.480;20.016;2023-01-27T09:07:22;94929.38;;;-2.09;100.00
54465;BME280;40374;49.480;20.016;2023-01-27T09:09:50;94926.97;;;-2.03;100.00
54465;BME280;40374;49.480;20.016;2023-01-27T09:12:33;94922.09;;;-2.07;100.00
54465;BME280;40374;49.480;20.016;2023-01-27T09:15:01;94917.66;;;-1.99;100.00
54465;BME280;40374;49.480;20.016;2023-01-27T09:17:29;94901.84;;;-1.99;100.00
54465;BME280;40374;49.480;20.016;2023-01-27T09:19:57;94917.22;;;-1.83;100.00
54465;BME280;40374;49.480;20.016;2023-01-27T09:22:24;94904.88;;;-1.76;100.00
54465;BME280;40374;49.480;20.016;2023-01-27T09:24:52;94903.22;;;-1.64;100.00
54465;BME280;40374;49.480;20.016;2023-01-27T09:27:20;94903.63;;;-1.53;100.00
54465;BME280;40374;49.480;20.016;2023-01-27T09:30:05;94891.41;;;-1.48;100.00
54465;BME280;40374;49.480;20.016;2023-01-27T09:32:33;94900.75;;;-1.38;100.00
54465;BME280;40374;49.480;20.016;2023-01-27T09:35:01;94894.03;;;-1.28;100.00
54465;BME280;40374;49.480;20.016;2023-01-27T09:37:29;94887.88;;;-1.15;100.00
54465;BME280;40374;49.480;20.016;2023-01-27T09:40:01;94890.09;;;-1.12;100.00
54465;BME280;40374;49.480;20.016;2023-01-27T09:48:30;94902.16;;;-1.36;100.00
54465;BME280;40374;49.480;20.016;2023-01-27T10:02:29;94888.78;;;-1.48;100.00
54465;BME280;40374;49.480;20.016;2023-01-27T10:08:44;94886.81;;;-1.07;100.00
54465;BME280;40374;49.480;20.016;2023-01-27T10:25:02;94876.06;;;-1.06;100.00
54465;BME280;40374;49.480;20.016;2023-01-27T10:27:36;94883.34;;;-1.01;100.00
54465;BME280;40374;49.480;20.016;2023-01-27T10:30:13;94878.88;;;-0.94;100.00
54465;BME280;40374;49.480;20.016;2023-01-27T10:33:16;94883.69;;;-0.84;100.00
54465;BME280;40374;49.480;20.016;2023-01-27T10:35:53;94878.41;;;-0.77;100.00
54465;BME280;40374;49.480;20.016;2023-01-27T10:38:42;94869.84;;;-0.73;100.00
54465;BME280;40374;49.480;20.016;2023-01-27T10:49:18;94873.56;;;-0.87;100.00
54465;BME280;40374;49.480;20.016;2023-01-27T10:52:15;94884.09;;;-0.80;100.00
54465;BME280;40374;49.480;20.016;2023-01-27T10:54:56;94869.75;;;-0.98;100.00
54465;BME280;40374;49.480;20.016;2023-01-27T10:57:36;94878.88;;;-0.94;100.00
54465;BME280;40374;49.480;20.016;2023-01-27T11:00:44;94881.75;;;-1.02;100.00
54465;BME280;40374;49.480;20.016;2023-01-27T11:03:41;94870.03;;;-1.26;100.00
54465;BME280;40374;49.480;20.016;2023-01-27T11:06:21;94874.94;;;-1.30;100.00
54465;BME280;40374;49.480;20.016;2023-01-27T11:08:54;94879.03;;;-1.34;100.00
54465;BME280;40374;49.480;20.016;2023-01-27T11:11:26;94884.50;;;-1.42;100.00
54465;BME280;40374;49.480;20.016;2023-01-27T11:14:39;94876.56;;;-1.29;100.00
54465;BME280;40374;49.480;20.016;2023-01-27T11:17:19;94873.31;;;-1.31;100.00
54465;BME280;40374;49.480;20.016;2023-01-27T11:25:45;94861.09;;;-1.18;100.00
54465;BME280;40374;49.480;20.016;2023-01-27T11:31:12;94867.19;;;-1.18;100.00
54465;BME280;40374;49.480;20.016;2023-01-27T11:34:12;94871.25;;;-1.22;100.00
54465;BME280;40374;49.480;20.016;2023-01-27T11:36:42;94841.88;;;-1.39;100.00
54465;BME280;40374;49.480;20.016;2023-01-27T11:39:11;94867.59;;;-1.21;100.00
54465;BME280;40374;49.480;20.016;2023-01-27T11:41:52;94861.28;;;-1.20;100.00
54465;BME280;40374;49.480;20.016;2023-01-27T11:44:31;94872.06;;;-1.15;100.00
54465;BME280;40374;49.480;20.016;2023-01-27T11:47:01;94854.63;;;-1.23;100.00
54465;BME280;40374;49.480;20.016;2023-01-27T11:49:35;94865.50;;;-1.06;100.00
54465;BME280;40374;49.480;20.016;2023-01-27T11:52:12;94861.88;;;-1.05;100.00
54465;BME280;40374;49.480;20.016;2023-01-27T11:57:22;94860.66;;;-1.09;100.00
54465;BME280;40374;49.480;20.016;2023-01-27T12:02:38;94860.47;;;-1.14;100.00
54465;BME280;40374;49.480;20.016;2023-01-27T12:05:23;94852.78;;;-1.22;100.00
54465;BME280;40374;49.480;20.016;2023-01-27T12:07:56;94859.88;;;-1.16;100.00
54465;BME280;40374;49.480;20.016;2023-01-27T12:10:32;94864.31;;;-1.10;100.00
54465;BME280;40374;49.480;20.016;2023-01-27T12:13:18;94866.13;;;-1.04;100.00
54465;BME280;40374;49.480;20.016;2023-01-27T12:15:50;94857.78;;;-1.07;100.00
54465;BME280;40374;49.480;20.016;2023-01-27T12:18:20;94864.94;;;-1.14;100.00
54465;BME280;40374;49.480;20.016;2023-01-27T12:20:59;94860.91;;;-1.17;100.00
54465;BME280;40374;49.480;20.016;2023-01-27T12:23:39;94875.72;;;-1.23;100.00
54465;BME280;40374;49.480;20.016;2023-01-27T12:26:14;94867.88;;;-1.36;100.00
54465;BME280;40374;49.480;20.016;2023-01-27T12:28:49;94860.56;;;-1.47;100.00
54465;BME280;40374;49.480;20.016;2023-01-27T12:31:29;94871.72;;;-1.45;100.00
54465;BME280;40374;49.480;20.016;2023-01-27T12:34:02;94854.34;;;-1.59;100.00
54465;BME280;40374;49.480;20.016;2023-01-27T12:36:42;94871.38;;;-1.55;100.00
54465;BME280;40374;49.480;20.016;2023-01-27T12:39:40;94876.63;;;-1.62;100.00
54465;BME280;40374;49.480;20.016;2023-01-27T12:42:34;94872.41;;;-1.63;100.00
54465;BME280;40374;49.480;20.016;2023-01-27T12:48:10;94866.28;;;-1.50;100.00
54465;BME280;40374;49.480;20.016;2023-01-27T12:53:18;94870.50;;;-1.36;100.00
54465;BME280;40374;49.480;20.016;2023-01-27T12:58:44;94865.63;;;-1.32;100.00
54465;BME280;40374;49.480;20.016;2023-01-27T13:03:53;94877.22;;;-1.40;100.00
54465;BME280;40374;49.480;20.016;2023-01-27T13:06:45;94877.03;;;-1.52;100.00
54465;BME280;40374;49.480;20.016;2023-01-27T13:09:30;94876.25;;;-1.59;100.00
54465;BME280;40374;49.480;20.016;2023-01-27T13:12:11;94877.81;;;-1.51;100.00
54465;BME280;40374;49.480;20.016;2023-01-27T13:14:42;94880.28;;;-1.56;100.00
54465;BME280;40374;49.480;20.016;2023-01-27T13:17:35;94884.31;;;-1.47;100.00
54465;BME280;40374;49.480;20.016;2023-01-27T13:22:59;94879.41;;;-1.37;100.00
54465;BME280;40374;49.480;20.016;2023-01-27T13:25:36;94868.69;;;-1.42;100.00
54465;BME280;40374;49.480;20.016;2023-01-27T13:28:06;94876.97;;;-1.32;100.00
54465;BME280;40374;49.480;20.016;2023-01-27T13:30:37;94877.16;;;-1.27;100.00
54465;BME280;40374;49.480;20.016;2023-01-27T13:36:00;94883.69;;;-1.36;100.00
54465;BME280;40374;49.480;20.016;2023-01-27T13:41:13;94885.31;;;-1.41;100.00
54465;BME280;40374;49.480;20.016;2023-01-27T13:43:52;94892.03;;;-1.46;100.00
54465;BME280;40374;49.480;20.016;2023-01-27T13:46:27;94876.81;;;-1.50;100.00
54465;BME280;40374;49.480;20.016;2023-01-27T13:51:54;94894.50;;;-1.57;100.00
54465;BME280;40374;49.480;20.016;2023-01-27T13:54:22;94904.22;;;-1.58;100.00
54465;BME280;40374;49.480;20.016;2023-01-27T13:57:11;94908.28;;;-1.55;100.00
54465;BME280;40374;49.480;20.016;2023-01-27T14:10:35;94900.16;;;-1.60;100.00
54465;BME280;40374;49.480;20.016;2023-01-27T14:15:57;94917.00;;;-1.55;100.00
54465;BME280;40374;49.480;20.016;2023-01-27T14:18:34;94909.72;;;-1.59;100.00
54465;BME280;40374;49.480;20.016;2023-01-27T14:29:59;94919.44;;;-1.67;100.00
54465;BME280;40374;49.480;20.016;2023-01-27T14:40:20;94927.56;;;-1.61;100.00
54465;BME280;40374;49.480;20.016;2023-01-27T15:02:48;94928.97;;;-1.79;100.00
54465;BME280;40374;49.480;20.016;2023-01-27T15:05:29;94937.91;;;-1.80;100.00
54465;BME280;40374;49.480;20.016;2023-01-27T15:10:37;94945.22;;;-1.82;100.00
54465;BME280;40374;49.480;20.016;2023-01-27T15:13:34;94936.47;;;-1.89;100.00
54465;BME280;40374;49.480;20.016;2023-01-27T15:22:06;94957.97;;;-1.86;100.00
54465;BME280;40374;49.480;20.016;2023-01-27T15:27:13;94930.00;;;-1.93;100.00
54465;BME280;40374;49.480;20.016;2023-01-27T15:29:44;94940.53;;;-1.93;100.00
54465;BME280;40374;49.480;20.016;2023-01-27T15:34:52;94942.38;;;-2.00;100.00
54465;BME280;40374;49.480;20.016;2023-01-27T15:37:24;94943.16;;;-2.00;100.00
54465;BME280;40374;49.480;20.016;2023-01-27T15:40:15;94934.66;;;-2.02;100.00
54465;BME280;40374;49.480;20.016;2023-01-27T15:45:34;94951.91;;;-1.93;100.00
54465;BME280;40374;49.480;20.016;2023-01-27T15:48:16;94946.84;;;-2.01;100.00
54465;BME280;40374;49.480;20.016;2023-01-27T15:50:48;94960.63;;;-1.92;100.00
54465;BME280;40374;49.480;20.016;2023-01-27T15:53:35;94963.88;;;-1.90;100.00
54465;BME280;40374;49.480;20.016;2023-01-27T15:56:06;94954.13;;;-1.96;100.00
54465;BME280;40374;49.480;20.016;2023-01-27T15:58:56;94953.94;;;-2.01;100.00
54465;BME280;40374;49.480;20.016;2023-01-27T16:01:32;94956.78;;;-2.03;100.00
54465;BME280;40374;49.480;20.016;2023-01-27T16:04:20;94970.38;;;-1.99;100.00